Jenner, California
Current Conditions -  °F | °C
As of 5:53 PM on Wednesday 22 Oct 2014 (Local Time) from KSTS Reporting Station
Broken Clouds Broken Clouds  
Wind Chill: 67°   Ceiling: 25000
Heat Index: 67°   Visibility: 10mi
Dew Point: 54°   Wind: 13mph
Humidity: 63%   Direction: 250°WSW
Pressure: 30"   Gusts: 18mph
Location:  38.45°N, 123.12°W
Report Text: KSTS 230053Z 25011G16KT 10SM FEW060 BKN250 19/12 A3000 RMK AO2 SLP154 T01940122
Loading
Personal Weather Stations






























Interactive Weather Map
Tropical Storm Tracking
New forecast layout! Learn more

10-Day Weather Forecast

Advertisements
Track Severe Weather on mobile